Time;durP1;ratioP1;P1;durP2;ratioP2;P2;SDS_P1;SDS_P2;PMS_P1;PMS_P2;Temp;Humidity;BMP_temperature;BMP_pressure;BME280_temperature;BME280_humidity;BME280_pressure;Samples;Min_cycle;Max_cycle;Signal;HPM_P1;HPM_P2
2023/09/16 00:01:36;;;;;;;9.20;2.67;;;17.30;99.90;;;;;;4980729;28;20061;-81
2023/09/16 00:04:03;;;;;;;4.82;2.85;;;17.30;99.90;;;;;;4980874;28;20034;-82
2023/09/16 00:06:29;;;;;;;3.83;3.10;;;17.40;99.90;;;;;;4962627;28;20019;-81
2023/09/16 00:08:54;;;;;;;4.97;3.20;;;17.30;99.90;;;;;;4962751;28;20045;-81
2023/09/16 00:11:22;;;;;;;4.85;3.10;;;17.30;99.90;;;;;;4980984;28;20106;-81
2023/09/16 00:13:47;;;;;;;3.55;2.70;;;17.30;99.90;;;;;;4979172;28;20027;-82
2023/09/16 00:16:15;;;;;;;4.57;2.90;;;17.30;99.90;;;;;;4963227;28;20022;-81
2023/09/16 00:18:43;;;;;;;8.48;2.92;;;17.30;99.90;;;;;;4981303;28;20037;-81
2023/09/16 00:21:10;;;;;;;4.78;3.38;;;17.30;99.90;;;;;;4979833;28;20105;-81
2023/09/16 00:23:36;;;;;;;3.17;2.88;;;17.30;99.90;;;;;;4963905;28;20058;-82
2023/09/16 00:26:03;;;;;;;3.42;2.65;;;17.30;99.90;;;;;;4979457;28;20038;-81
2023/09/16 00:28:35;;;;;;;4.22;2.90;;;17.40;99.90;;;;;;4981242;28;20054;-81
2023/09/16 00:31:06;;;;;;;3.95;2.45;;;17.30;99.90;;;;;;4982024;28;20041;-82
2023/09/16 00:33:31;;;;;;;7.20;3.35;;;17.30;99.90;;;;;;4982127;28;20038;-82
2023/09/16 00:35:57;;;;;;;4.63;2.88;;;17.30;99.90;;;;;;4985507;28;20027;-82
2023/09/16 00:38:23;;;;;;;4.63;2.60;;;17.30;99.90;;;;;;4967631;28;20034;-82
2023/09/16 00:40:51;;;;;;;4.97;2.85;;;17.30;99.90;;;;;;4979411;28;20117;-82
2023/09/16 00:43:17;;;;;;;4.43;3.25;;;17.20;99.90;;;;;;5009235;28;20023;-83
2023/09/16 00:45:43;;;;;;;5.07;2.47;;;17.20;99.90;;;;;;4992882;28;20030;-82
2023/09/16 00:48:12;;;;;;;6.15;2.97;;;17.10;99.90;;;;;;5004085;28;20105;-82
2023/09/16 00:50:41;;;;;;;4.05;3.38;;;17.10;99.90;;;;;;4982854;28;20104;-81
2023/09/16 00:53:07;;;;;;;3.30;3.00;;;17.00;99.90;;;;;;4986336;28;20034;-81
2023/09/16 00:55:33;;;;;;;3.55;3.08;;;17.00;99.90;;;;;;4983885;28;20019;-82
2023/09/16 00:57:59;;;;;;;3.53;2.70;;;17.00;99.90;;;;;;4983243;28;20029;-81
2023/09/16 01:00:28;;;;;;;4.22;3.05;;;17.00;99.90;;;;;;4967889;28;20274;-82
2023/09/16 01:02:56;;;;;;;4.03;3.22;;;17.00;99.90;;;;;;4983333;28;20517;-81
2023/09/16 01:05:21;;;;;;;4.32;3.10;;;17.00;99.90;;;;;;4983577;28;20080;-82
2023/09/16 01:07:47;;;;;;;5.35;3.45;;;17.00;99.90;;;;;;4982590;28;20022;-82
2023/09/16 01:10:14;;;;;;;3.10;2.85;;;17.00;99.90;;;;;;4966626;28;20109;-81
2023/09/16 01:12:42;;;;;;;5.10;3.00;;;17.00;99.90;;;;;;4983545;28;20360;-81
2023/09/16 01:15:09;;;;;;;3.78;2.63;;;17.00;99.90;;;;;;4980643;28;20555;-81
2023/09/16 01:17:42;;;;;;;3.47;2.95;;;17.00;99.90;;;;;;4976655;28;20022;-82
2023/09/16 01:20:15;;;;;;;4.32;2.83;;;17.10;99.90;;;;;;4983542;28;20442;-81
2023/09/16 01:22:45;;;;;;;5.28;3.38;;;17.10;99.90;;;;;;4965615;28;20028;-81
2023/09/16 01:25:14;;;;;;;3.70;2.72;;;17.20;99.90;;;;;;4965593;28;20459;-81
2023/09/16 01:27:41;;;;;;;5.15;3.10;;;17.20;99.90;;;;;;4981656;28;20498;-81
2023/09/16 01:30:08;;;;;;;4.10;2.88;;;17.20;99.90;;;;;;4983476;28;20019;-81
2023/09/16 01:32:50;;;;;;;2.88;2.67;;;17.30;99.90;;;;;;4983291;28;20026;-81
2023/09/16 01:35:18;;;;;;;4.03;3.63;;;17.30;99.90;;;;;;4964594;28;20061;-81
2023/09/16 01:37:46;;;;;;;4.38;3.10;;;17.30;99.90;;;;;;4981645;28;20047;-82
2023/09/16 01:40:14;;;;;;;4.15;2.55;;;17.30;99.90;;;;;;4981508;28;20029;-81
2023/09/16 01:42:41;;;;;;;16.00;3.22;;;17.40;99.90;;;;;;4981151;28;20037;-82
2023/09/16 01:45:07;;;;;;;2.92;2.67;;;17.40;99.90;;;;;;4981586;28;20035;-82
2023/09/16 01:47:34;;;;;;;3.72;2.97;;;17.40;99.90;;;;;;4967466;28;20038;-81
2023/09/16 01:49:59;;;;;;;3.15;2.75;;;17.40;99.90;;;;;;4957659;28;20069;-81
2023/09/16 01:52:25;;;;;;;2.90;2.60;;;17.40;99.90;;;;;;4981181;28;20512;-82
2023/09/16 01:54:51;;;;;;;2.95;2.65;;;17.50;99.90;;;;;;4981668;28;20037;-82
2023/09/16 01:57:16;;;;;;;3.30;2.90;;;17.50;99.90;;;;;;4980564;28;20394;-82
2023/09/16 01:59:42;;;;;;;3.38;2.90;;;17.60;99.90;;;;;;4981930;28;20034;-82
2023/09/16 02:02:11;;;;;;;5.88;3.28;;;17.60;99.90;;;;;;4966401;28;20053;-81
2023/09/16 02:04:38;;;;;;;3.97;2.85;;;17.60;99.90;;;;;;4960669;28;20041;-81
2023/09/16 02:07:04;;;;;;;4.50;2.70;;;17.60;99.90;;;;;;4965804;28;20027;-81
2023/09/16 02:09:29;;;;;;;3.33;3.03;;;17.60;99.90;;;;;;4982092;28;20034;-81
2023/09/16 02:11:57;;;;;;;5.78;3.03;;;17.70;99.90;;;;;;4982365;28;20284;-80
2023/09/16 02:14:23;;;;;;;6.05;2.88;;;17.60;99.90;;;;;;4968303;28;21001;-81
2023/09/16 02:16:49;;;;;;;3.25;2.90;;;17.70;99.90;;;;;;4981982;28;20351;-81
2023/09/16 02:19:15;;;;;;;6.40;2.83;;;17.60;99.90;;;;;;4982535;28;20108;-81
2023/09/16 02:21:40;;;;;;;2.97;2.72;;;17.70;99.90;;;;;;4964401;28;20026;-81
2023/09/16 02:24:06;;;;;;;3.50;2.90;;;17.70;99.90;;;;;;4981163;28;20034;-81
2023/09/16 02:26:31;;;;;;;2.85;2.63;;;17.80;99.90;;;;;;4980630;28;20040;-81
2023/09/16 02:29:00;;;;;;;6.15;3.30;;;17.80;99.90;;;;;;4980483;28;20055;-81
2023/09/16 02:31:28;;;;;;;5.53;3.10;;;17.90;99.90;;;;;;4963062;28;20045;-81
2023/09/16 02:33:58;;;;;;;4.57;2.63;;;17.90;99.90;;;;;;4979146;28;20073;-80
2023/09/16 02:36:24;;;;;;;5.22;2.85;;;17.90;99.90;;;;;;4978936;28;20030;-81
2023/09/16 02:38:51;;;;;;;4.22;2.67;;;17.90;99.90;;;;;;4979058;28;20117;-82
2023/09/16 02:41:17;;;;;;;4.40;2.80;;;17.90;99.90;;;;;;4980837;28;20083;-81
2023/09/16 02:43:47;;;;;;;3.05;2.83;;;17.90;99.90;;;;;;4964343;28;20026;-81
2023/09/16 02:46:13;;;;;;;3.20;2.60;;;18.00;99.90;;;;;;4964218;28;20113;-81
2023/09/16 02:48:39;;;;;;;3.28;2.80;;;18.00;99.90;;;;;;4979499;28;20212;-81
2023/09/16 02:51:04;;;;;;;7.88;2.58;;;18.00;99.90;;;;;;4981037;28;20101;-81
2023/09/16 02:53:30;;;;;;;3.90;2.65;;;18.10;99.90;;;;;;4982099;28;20101;-81
2023/09/16 02:55:56;;;;;;;2.70;2.50;;;18.10;99.90;;;;;;4979269;28;20060;-81
2023/09/16 02:58:22;;;;;;;3.97;2.78;;;18.00;99.90;;;;;;4979560;28;20494;-81
2023/09/16 03:00:48;;;;;;;2.80;2.40;;;18.00;99.90;;;;;;4964324;28;20378;-81
2023/09/16 03:03:14;;;;;;;4.32;2.92;;;18.00;99.90;;;;;;4980576;28;20039;-81
2023/09/16 03:05:46;;;;;;;2.75;2.35;;;18.10;99.90;;;;;;4963264;28;20040;-80
2023/09/16 03:08:13;;;;;;;3.03;2.22;;;18.00;99.90;;;;;;4986689;28;20114;-81
2023/09/16 03:10:41;;;;;;;3.08;2.78;;;18.00;99.90;;;;;;4979671;28;20505;-81
2023/09/16 03:13:07;;;;;;;3.72;2.83;;;18.00;99.90;;;;;;4981952;28;20038;-81
2023/09/16 03:15:36;;;;;;;3.35;2.40;;;18.00;99.90;;;;;;4979655;28;20109;-81
2023/09/16 03:18:02;;;;;;;2.67;2.47;;;17.90;99.90;;;;;;4980761;28;20045;-81
2023/09/16 03:20:27;;;;;;;2.97;2.28;;;17.90;99.90;;;;;;4973568;28;20022;-81
2023/09/16 03:22:53;;;;;;;3.35;2.70;;;17.80;99.90;;;;;;4981288;28;20024;-81
2023/09/16 03:25:18;;;;;;;3.42;2.95;;;17.80;99.90;;;;;;4980622;28;20089;-82
2023/09/16 03:27:44;;;;;;;2.50;2.30;;;17.70;99.90;;;;;;4979989;28;20432;-81
2023/09/16 03:30:10;;;;;;;2.58;2.38;;;17.70;99.90;;;;;;4963540;28;20085;-81
2023/09/16 03:32:39;;;;;;;2.85;2.65;;;17.70;99.90;;;;;;4981071;28;20272;-81
2023/09/16 03:35:05;;;;;;;3.00;2.80;;;17.60;99.90;;;;;;4963284;28;20018;-82
2023/09/16 03:37:31;;;;;;;3.40;2.63;;;17.60;99.90;;;;;;4977739;28;20030;-82
2023/09/16 03:39:56;;;;;;;4.50;2.63;;;17.60;99.90;;;;;;4981071;28;20165;-81
2023/09/16 03:42:22;;;;;;;3.65;3.28;;;17.60;99.90;;;;;;4980630;28;20014;-82
2023/09/16 03:44:48;;;;;;;3.13;2.63;;;17.60;99.90;;;;;;4979988;28;20482;-80
2023/09/16 03:47:13;;;;;;;5.65;3.08;;;17.50;99.90;;;;;;4978760;28;20038;-80
2023/09/16 03:49:39;;;;;;;4.40;3.33;;;17.50;99.90;;;;;;4963836;28;20030;-81
2023/09/16 03:52:05;;;;;;;4.43;3.05;;;17.50;99.90;;;;;;4961291;28;20064;-81
2023/09/16 03:54:31;;;;;;;4.43;3.10;;;17.50;99.90;;;;;;4980027;28;20098;-81
2023/09/16 03:56:56;;;;;;;4.53;3.17;;;17.50;99.90;;;;;;4981821;28;20109;-81
2023/09/16 03:59:22;;;;;;;4.13;3.10;;;17.50;99.90;;;;;;4977520;28;20081;-80
2023/09/16 04:01:47;;;;;;;5.15;3.03;;;17.50;99.90;;;;;;4982413;28;20030;-81
2023/09/16 04:04:13;;;;;;;4.03;3.45;;;17.40;99.90;;;;;;4961428;28;20491;-81
2023/09/16 04:06:39;;;;;;;6.90;2.90;;;17.40;99.90;;;;;;4980282;28;20026;-81
2023/09/16 04:09:04;;;;;;;3.25;2.90;;;17.30;99.90;;;;;;4978966;28;20844;-80
2023/09/16 04:11:30;;;;;;;4.28;3.17;;;17.30;99.90;;;;;;4978970;28;20033;-81
2023/09/16 04:13:56;;;;;;;5.22;3.38;;;17.20;99.90;;;;;;4964467;28;20109;-81
2023/09/16 04:16:21;;;;;;;3.60;3.28;;;17.20;99.90;;;;;;4985867;28;20035;-82
2023/09/16 04:18:53;;;;;;;5.45;2.90;;;17.20;99.90;;;;;;4985999;28;20026;-80
2023/09/16 04:21:19;;;;;;;3.15;2.85;;;17.10;99.90;;;;;;4984581;28;20019;-81
2023/09/16 04:23:44;;;;;;;3.55;2.85;;;17.10;99.90;;;;;;4986094;28;20493;-81
2023/09/16 04:26:13;;;;;;;4.88;3.33;;;17.00;99.90;;;;;;4987316;28;20034;-80
2023/09/16 04:28:41;;;;;;;3.95;3.50;;;17.00;99.90;;;;;;4963366;28;20467;-81
2023/09/16 04:31:08;;;;;;;3.20;2.90;;;17.00;99.90;;;;;;4985449;28;20288;-81
2023/09/16 04:33:38;;;;;;;7.10;3.55;;;17.10;99.90;;;;;;4987153;28;20101;-80
2023/09/16 04:36:04;;;;;;;3.83;3.03;;;17.10;99.90;;;;;;4987155;28;20387;-81
2023/09/16 04:38:29;;;;;;;4.43;4.00;;;17.00;99.90;;;;;;4987649;28;20450;-81
2023/09/16 04:40:55;;;;;;;4.50;3.10;;;17.00;99.90;;;;;;4988604;28;20030;-81
2023/09/16 04:43:25;;;;;;;4.10;3.22;;;17.00;99.90;;;;;;4986505;28;20026;-81
2023/09/16 04:45:51;;;;;;;4.47;3.25;;;17.00;99.90;;;;;;4970164;28;20038;-81
2023/09/16 04:48:17;;;;;;;2.97;2.67;;;17.00;99.90;;;;;;4985532;28;20038;-81
2023/09/16 04:50:45;;;;;;;3.58;2.92;;;17.00;99.90;;;;;;4969211;28;20026;-81
2023/09/16 04:53:11;;;;;;;3.55;3.03;;;17.00;99.90;;;;;;4971019;28;20026;-81
2023/09/16 04:55:37;;;;;;;4.20;3.45;;;17.00;99.90;;;;;;4989432;28;20096;-81
2023/09/16 04:58:04;;;;;;;7.75;3.60;;;16.90;99.90;;;;;;4992891;28;20037;-81
2023/09/16 05:00:33;;;;;;;4.28;3.53;;;16.90;99.90;;;;;;4987759;28;20037;-81
2023/09/16 05:03:00;;;;;;;5.97;3.13;;;16.80;99.90;;;;;;4994835;28;20019;-81
2023/09/16 05:05:25;;;;;;;6.43;3.38;;;16.80;99.90;;;;;;4991519;28;20062;-81
2023/09/16 05:07:51;;;;;;;3.80;3.17;;;16.90;99.90;;;;;;5000153;28;20041;-81
2023/09/16 05:10:17;;;;;;;5.80;3.92;;;16.90;99.90;;;;;;4989775;28;20050;-80
2023/09/16 05:12:42;;;;;;;5.82;3.63;;;16.90;99.90;;;;;;4989857;28;20022;-81
2023/09/16 05:15:09;;;;;;;4.28;3.15;;;16.80;99.90;;;;;;4986388;28;20052;-80
2023/09/16 05:17:36;;;;;;;7.25;3.63;;;16.80;99.90;;;;;;4967705;28;20671;-81
2023/09/16 05:20:05;;;;;;;4.05;3.13;;;16.80;99.90;;;;;;4986696;28;20033;-81
2023/09/16 05:22:31;;;;;;;6.30;3.70;;;16.80;99.90;;;;;;4986221;28;21021;-81
2023/09/16 05:24:59;;;;;;;7.13;3.50;;;16.80;99.90;;;;;;4988288;28;20485;-81
2023/09/16 05:27:25;;;;;;;8.10;3.58;;;16.80;99.90;;;;;;4976371;28;20034;-81
2023/09/16 05:29:51;;;;;;;3.95;2.88;;;16.70;99.90;;;;;;4969771;28;20041;-81
2023/09/16 05:32:18;;;;;;;5.15;3.55;;;16.70;99.90;;;;;;4984548;28;20026;-84
2023/09/16 05:34:44;;;;;;;5.30;2.80;;;16.70;99.90;;;;;;4968185;28;20026;-82
2023/09/16 05:37:09;;;;;;;3.47;3.03;;;16.70;99.90;;;;;;4987447;28;20141;-83
2023/09/16 05:39:35;;;;;;;4.03;3.63;;;16.70;99.90;;;;;;4966219;28;20109;-82
2023/09/16 05:42:01;;;;;;;3.42;3.00;;;16.70;99.90;;;;;;4968988;28;20467;-82
2023/09/16 05:44:26;;;;;;;7.20;3.20;;;16.80;99.90;;;;;;4985218;28;20092;-83
2023/09/16 05:46:52;;;;;;;3.97;3.60;;;16.80;99.90;;;;;;4968793;28;20066;-83
2023/09/16 05:49:18;;;;;;;5.35;4.18;;;16.80;99.90;;;;;;4987590;28;20053;-82
2023/09/16 05:51:44;;;;;;;4.03;3.33;;;16.80;99.90;;;;;;4985429;28;20513;-82
2023/09/16 05:54:11;;;;;;;4.55;3.53;;;16.80;99.90;;;;;;4986216;28;20031;-83
2023/09/16 05:56:38;;;;;;;5.32;3.45;;;16.80;99.90;;;;;;4969359;28;20018;-82
2023/09/16 05:59:05;;;;;;;3.63;3.30;;;16.90;99.90;;;;;;4986046;28;20023;-82
2023/09/16 06:01:30;;;;;;;4.30;3.30;;;16.90;99.90;;;;;;4967267;28;20340;-83
2023/09/16 06:03:56;;;;;;;3.60;3.30;;;16.90;99.90;;;;;;4986758;28;20031;-82
2023/09/16 06:06:22;;;;;;;9.18;3.90;;;17.00;99.90;;;;;;4984495;28;20046;-82
2023/09/16 06:08:51;;;;;;;5.40;3.58;;;17.00;99.90;;;;;;4982556;28;20019;-82
2023/09/16 06:11:18;;;;;;;4.05;3.67;;;17.00;99.90;;;;;;4960839;28;20022;-82
2023/09/16 06:13:44;;;;;;;6.78;4.82;;;17.10;99.90;;;;;;4968742;28;20026;-83
2023/09/16 06:16:10;;;;;;;3.67;3.38;;;17.10;99.90;;;;;;4985833;28;20035;-82
2023/09/16 06:18:36;;;;;;;4.10;3.60;;;17.10;99.90;;;;;;4983388;28;20402;-83
2023/09/16 06:21:04;;;;;;;5.88;4.20;;;17.20;99.90;;;;;;4984976;28;20101;-82
2023/09/16 06:23:30;;;;;;;6.05;3.63;;;17.20;99.90;;;;;;4986135;28;20033;-82
2023/09/16 06:25:56;;;;;;;4.75;3.38;;;17.30;99.90;;;;;;4985306;28;20031;-83
2023/09/16 06:28:21;;;;;;;4.43;3.95;;;17.40;99.90;;;;;;4968502;28;20030;-83
2023/09/16 06:30:47;;;;;;;4.82;3.72;;;17.50;99.90;;;;;;4986097;28;20032;-83
2023/09/16 06:33:15;;;;;;;4.40;3.70;;;17.50;99.90;;;;;;4984624;28;20078;-83
2023/09/16 06:35:40;;;;;;;5.68;3.38;;;17.60;99.90;;;;;;4965776;28;20109;-84
2023/09/16 06:38:06;;;;;;;5.05;3.03;;;17.60;99.90;;;;;;4983900;28;20097;-85
2023/09/16 06:40:34;;;;;;;3.78;2.85;;;17.60;99.90;;;;;;4963404;28;20026;-84
2023/09/16 06:42:59;;;;;;;5.93;3.80;;;17.70;99.90;;;;;;4984165;28;20045;-85
2023/09/16 06:45:25;;;;;;;5.00;3.55;;;17.80;99.90;;;;;;4968291;28;20545;-85
2023/09/16 06:47:50;;;;;;;3.33;3.03;;;17.90;99.90;;;;;;4986494;28;20109;-85
2023/09/16 06:50:16;;;;;;;7.78;3.50;;;17.90;99.90;;;;;;4983741;28;20034;-84
2023/09/16 06:52:45;;;;;;;3.90;2.83;;;18.00;99.90;;;;;;4964713;28;20037;-85
2023/09/16 06:55:13;;;;;;;4.50;3.38;;;18.10;99.90;;;;;;4983375;28;20041;-85
2023/09/16 06:57:38;;;;;;;3.75;2.95;;;18.10;99.90;;;;;;4983913;28;20108;-83
2023/09/16 07:00:07;;;;;;;4.43;3.53;;;18.20;99.90;;;;;;4982456;28;20293;-83
2023/09/16 07:02:33;;;;;;;5.13;3.05;;;18.30;99.90;;;;;;4984566;28;20081;-83
2023/09/16 07:04:59;;;;;;;3.40;3.10;;;18.40;99.90;;;;;;4984509;28;20041;-83
2023/09/16 07:07:25;;;;;;;3.38;3.00;;;18.50;99.90;;;;;;4959067;28;20493;-83
2023/09/16 07:09:55;;;;;;;5.45;3.28;;;18.60;99.90;;;;;;4969056;28;20718;-80
2023/09/16 07:12:21;;;;;;;3.42;3.05;;;18.60;99.90;;;;;;4958106;28;20038;-81
2023/09/16 07:14:50;;;;;;;4.25;3.85;;;18.80;99.90;;;;;;4983569;28;20061;-80
2023/09/16 07:17:17;;;;;;;4.28;3.20;;;18.80;99.90;;;;;;4984530;28;20490;-82
2023/09/16 07:19:43;;;;;;;4.57;2.90;;;18.90;99.90;;;;;;4970953;28;20041;-82
2023/09/16 07:22:09;;;;;;;3.22;2.92;;;19.00;99.90;;;;;;4969667;28;20408;-81
2023/09/16 07:24:35;;;;;;;3.58;2.72;;;19.10;99.90;;;;;;4983664;28;20018;-82
2023/09/16 07:27:03;;;;;;;3.28;2.90;;;19.10;99.90;;;;;;4964141;28;20538;-81
2023/09/16 07:29:28;;;;;;;3.05;2.50;;;19.20;99.90;;;;;;4983494;28;20026;-82
2023/09/16 07:31:54;;;;;;;3.10;2.50;;;19.20;99.90;;;;;;4985017;28;20026;-82
2023/09/16 07:34:22;;;;;;;3.97;2.95;;;19.30;99.90;;;;;;4982670;28;20034;-82
2023/09/16 07:36:48;;;;;;;4.60;3.15;;;19.40;99.90;;;;;;4963086;28;20049;-82
2023/09/16 07:39:14;;;;;;;3.17;2.70;;;19.50;99.90;;;;;;4985093;28;20546;-82
2023/09/16 07:41:41;;;;;;;2.85;2.55;;;19.60;99.90;;;;;;4968282;28;20146;-81
2023/09/16 07:44:07;;;;;;;3.03;2.72;;;19.80;99.90;;;;;;4993726;28;20224;-82
2023/09/16 07:46:34;;;;;;;4.22;3.08;;;19.90;99.90;;;;;;4983743;28;20053;-83
2023/09/16 07:48:59;;;;;;;4.63;2.28;;;20.00;99.90;;;;;;4967799;28;20035;-82
2023/09/16 07:51:25;;;;;;;3.55;3.25;;;20.20;99.90;;;;;;4986815;28;20520;-81
2023/09/16 07:53:51;;;;;;;4.50;3.25;;;20.40;99.90;;;;;;4986865;28;20105;-83
2023/09/16 07:56:18;;;;;;;3.67;2.70;;;20.60;99.90;;;;;;4989245;28;20185;-82
2023/09/16 07:58:44;;;;;;;2.42;2.22;;;20.80;99.90;;;;;;4986051;28;20085;-82
2023/09/16 08:01:09;;;;;;;2.53;2.15;;;20.90;99.90;;;;;;4987233;28;20026;-84
2023/09/16 08:03:37;;;;;;;3.03;2.67;;;21.10;99.90;;;;;;4970889;28;20029;-82
2023/09/16 08:06:08;;;;;;;2.40;2.08;;;21.20;99.90;;;;;;4985021;28;20089;-82
2023/09/16 08:08:34;;;;;;;2.95;2.60;;;21.40;99.90;;;;;;4987679;28;20065;-82
2023/09/16 08:11:00;;;;;;;2.83;2.58;;;21.50;99.90;;;;;;4968865;28;20447;-83
2023/09/16 08:13:26;;;;;;;2.65;2.45;;;21.70;99.90;;;;;;4985826;28;20040;-83
2023/09/16 08:15:54;;;;;;;2.63;2.42;;;21.80;99.90;;;;;;4986323;28;20022;-82
2023/09/16 08:18:20;;;;;;;4.70;2.20;;;21.90;99.90;;;;;;4994017;28;20037;-85
2023/09/16 08:20:45;;;;;;;2.85;2.58;;;22.10;99.90;;;;;;5011103;28;20057;-85
2023/09/16 08:23:14;;;;;;;2.92;2.60;;;22.10;99.90;;;;;;5003150;28;20018;-94
2023/09/16 08:25:40;;;;;;;2.70;2.30;;;22.20;99.90;;;;;;4988196;28;20364;-84
2023/09/16 08:28:08;;;;;;;2.85;2.65;;;22.20;99.90;;;;;;4984618;28;20038;-82
2023/09/16 08:30:33;;;;;;;2.33;2.13;;;22.30;99.90;;;;;;4970240;28;20069;-82
2023/09/16 08:32:59;;;;;;;3.03;2.83;;;22.50;99.90;;;;;;4987784;28;20109;-82
2023/09/16 08:35:26;;;;;;;3.88;3.50;;;22.70;99.90;;;;;;4985966;28;20027;-84
2023/09/16 08:37:54;;;;;;;2.83;2.40;;;22.80;99.90;;;;;;4984541;28;20478;-85
2023/09/16 08:40:21;;;;;;;2.97;2.65;;;23.00;99.90;;;;;;4988489;28;20186;-84
2023/09/16 08:43:27;;;;;;;2.50;2.30;;;23.10;99.90;;;;;;4982834;28;20073;-84
2023/09/16 08:46:02;;;;;;;2.80;2.60;;;23.30;99.90;;;;;;4985479;28;20363;-83
2023/09/16 08:48:36;;;;;;;2.88;2.67;;;23.60;99.90;;;;;;4987281;28;20062;-83
2023/09/16 08:51:05;;;;;;;4.07;1.98;;;23.60;99.90;;;;;;4968993;28;20081;-83
2023/09/16 08:53:34;;;;;;;2.55;2.28;;;23.70;99.90;;;;;;4963029;28;20030;-82
2023/09/16 08:56:03;;;;;;;3.45;2.38;;;23.60;99.90;;;;;;4962837;28;20413;-85
2023/09/16 08:58:33;;;;;;;2.70;2.50;;;23.60;99.90;;;;;;4984584;28;20049;-85
2023/09/16 09:00:59;;;;;;;3.00;2.70;;;23.60;99.90;;;;;;4986103;28;20144;-85
2023/09/16 09:03:25;;;;;;;29.23;13.27;;;23.60;99.90;;;;;;4982014;28;20018;-90
2023/09/16 09:05:52;;;;;;;3.50;3.17;;;23.80;99.90;;;;;;4988069;28;20030;-88
2023/09/16 09:08:18;;;;;;;14.05;6.75;;;24.00;99.90;;;;;;4986858;28;20030;-88
2023/09/16 09:10:45;;;;;;;3.35;2.47;;;24.30;99.90;;;;;;4986775;28;20046;-87
2023/09/16 09:13:13;;;;;;;6.65;2.75;;;24.60;99.90;;;;;;4986812;28;20587;-84
2023/09/16 09:15:40;;;;;;;2.80;2.70;;;24.80;97.80;;;;;;4967653;28;20430;-85
2023/09/16 09:18:07;;;;;;;4.68;2.60;;;24.70;96.30;;;;;;4980276;28;20085;-83
2023/09/16 09:20:32;;;;;;;2.22;2.13;;;24.70;96.10;;;;;;4984089;28;20026;-84
2023/09/16 09:23:02;;;;;;;1.90;1.80;;;24.80;96.30;;;;;;4987716;28;20033;-85
2023/09/16 09:25:31;;;;;;;2.08;1.98;;;25.10;95.00;;;;;;4972158;28;20044;-84
2023/09/16 09:28:02;;;;;;;2.10;2.00;;;25.30;95.20;;;;;;4988005;28;20033;-84
2023/09/16 09:30:29;;;;;;;2.28;2.05;;;25.60;94.60;;;;;;4984247;28;20120;-84
2023/09/16 09:32:56;;;;;;;2.53;2.33;;;25.70;93.90;;;;;;4968993;28;20015;-84
2023/09/16 09:35:23;;;;;;;2.22;2.13;;;25.90;93.30;;;;;;4992777;28;20022;-84
2023/09/16 09:37:49;;;;;;;104.28;44.53;;;26.10;92.50;;;;;;4993477;28;20046;-85
2023/09/16 09:40:15;;;;;;;4.18;1.98;;;26.10;91.50;;;;;;4982448;28;20027;-84
2023/09/16 09:42:49;;;;;;;2.42;2.22;;;26.20;93.00;;;;;;4995390;28;20075;-84
2023/09/16 09:45:17;;;;;;;2.55;2.30;;;26.50;91.70;;;;;;4993600;28;20029;-84
2023/09/16 09:47:45;;;;;;;2.20;2.10;;;26.40;91.30;;;;;;4999850;28;20061;-85
2023/09/16 09:50:16;;;;;;;2.60;2.40;;;26.60;91.40;;;;;;4998489;28;20047;-86
2023/09/16 09:52:52;;;;;;;5.82;2.42;;;26.80;91.30;;;;;;4988711;28;20050;-86
2023/09/16 09:55:20;;;;;;;2.45;2.25;;;26.60;90.70;;;;;;4984989;28;20027;-87
2023/09/16 09:57:48;;;;;;;2.80;2.60;;;26.60;90.00;;;;;;4970711;28;20031;-87
2023/09/16 10:00:16;;;;;;;2.20;2.10;;;26.60;89.70;;;;;;4965289;28;20113;-86
2023/09/16 10:02:45;;;;;;;4.03;2.33;;;26.80;89.00;;;;;;4985992;28;20061;-87
2023/09/16 10:05:21;;;;;;;2.25;2.15;;;27.10;88.00;;;;;;4985970;28;20022;-83
2023/09/16 10:07:47;;;;;;;3.08;2.85;;;27.10;88.30;;;;;;4985707;28;20501;-82
2023/09/16 10:10:18;;;;;;;2.20;2.00;;;27.10;90.00;;;;;;4983864;28;20514;-83
2023/09/16 10:12:45;;;;;;;2.03;1.90;;;26.80;89.70;;;;;;4980482;28;20592;-83
2023/09/16 10:15:11;;;;;;;2.22;2.10;;;26.90;89.40;;;;;;4985630;28;20035;-83
2023/09/16 10:17:37;;;;;;;2.60;2.40;;;26.80;90.30;;;;;;4982018;28;20360;-83
2023/09/16 10:20:04;;;;;;;2.60;2.40;;;26.90;89.90;;;;;;4983455;28;20026;-83
2023/09/16 10:22:30;;;;;;;2.55;2.42;;;27.20;89.70;;;;;;4962260;28;20089;-83
2023/09/16 10:24:56;;;;;;;2.38;2.28;;;27.40;87.20;;;;;;4967041;28;20097;-83
2023/09/16 10:27:30;;;;;;;2.20;2.10;;;27.30;86.50;;;;;;4964845;28;20049;-83
2023/09/16 10:29:56;;;;;;;4.82;2.17;;;27.50;86.60;;;;;;4967323;28;20042;-84
2023/09/16 10:32:22;;;;;;;2.83;2.70;;;27.50;86.40;;;;;;4967941;28;20030;-83
2023/09/16 10:34:48;;;;;;;2.30;2.20;;;27.60;86.70;;;;;;4977849;28;20029;-81
2023/09/16 10:37:18;;;;;;;2.33;2.22;;;28.00;84.40;;;;;;4983248;28;20390;-83
2023/09/16 10:39:46;;;;;;;2.35;2.15;;;28.20;84.30;;;;;;4985976;28;20029;-83
2023/09/16 10:42:19;;;;;;;3.03;2.83;;;28.30;82.10;;;;;;4982818;28;20054;-83
2023/09/16 10:44:46;;;;;;;2.80;2.60;;;28.20;81.90;;;;;;4966440;28;20040;-84
2023/09/16 10:47:14;;;;;;;2.75;2.55;;;28.20;84.10;;;;;;4987423;28;20112;-84
2023/09/16 10:49:39;;;;;;;2.90;2.60;;;28.40;84.70;;;;;;4969843;28;20034;-83
2023/09/16 10:52:09;;;;;;;2.65;2.45;;;28.50;83.90;;;;;;4968304;28;20730;-84
2023/09/16 10:54:42;;;;;;;2.40;2.30;;;28.50;84.80;;;;;;4961202;28;20081;-84
2023/09/16 10:57:17;;;;;;;2.83;2.63;;;28.50;81.80;;;;;;4960160;28;20037;-83
2023/09/16 10:59:44;;;;;;;2.63;2.53;;;28.30;83.80;;;;;;4981235;28;20046;-84
2023/09/16 11:03:11;;;;;;;2.40;2.25;;;28.30;83.60;;;;;;4986184;28;20022;-84
2023/09/16 11:05:36;;;;;;;3.22;2.95;;;28.20;83.80;;;;;;4917465;29;20028;-84
2023/09/16 11:08:03;;;;;;;2.80;2.60;;;28.10;85.00;;;;;;4894108;29;20043;-83
2023/09/16 11:10:31;;;;;;;3.33;3.13;;;27.80;84.50;;;;;;4897937;29;20035;-84
2023/09/16 11:12:58;;;;;;;3.00;2.78;;;27.80;84.40;;;;;;4910760;29;20444;-83
2023/09/16 11:15:31;;;;;;;2.78;2.60;;;27.60;84.60;;;;;;4898225;29;20118;-83
2023/09/16 11:18:04;;;;;;;2.42;2.25;;;27.50;88.20;;;;;;4928253;29;20050;-83
2023/09/16 11:20:32;;;;;;;;;;;27.80;87.00;;;;;;4898220;29;20127;-83
2023/09/16 11:23:07;;;;;;;2.45;2.35;;;27.90;85.20;;;;;;4898859;29;19910;-84
2023/09/16 11:25:38;;;;;;;3.38;3.17;;;28.10;83.00;;;;;;4896495;29;20028;-83
2023/09/16 11:28:08;;;;;;;2.70;2.50;;;28.20;83.30;;;;;;4896249;29;20028;-83
2023/09/16 11:30:38;;;;;;;3.00;2.88;;;28.20;82.60;;;;;;4904286;29;20036;-82
2023/09/16 11:33:08;;;;;;;2.67;2.50;;;28.10;84.10;;;;;;4888212;29;20058;-83
2023/09/16 11:35:40;;;;;;;2.97;2.78;;;28.20;83.10;;;;;;4926441;28;20035;-83
2023/09/16 11:38:05;;;;;;;2.60;2.50;;;28.40;82.40;;;;;;4982014;28;20348;-83
2023/09/16 11:40:34;;;;;;;2.85;2.75;;;28.50;82.50;;;;;;4976876;28;20129;-83
2023/09/16 11:43:01;;;;;;;2.78;2.58;;;28.70;81.60;;;;;;4967821;28;20072;-84
2023/09/16 11:45:31;;;;;;;2.55;2.40;;;29.10;81.10;;;;;;4969814;28;20026;-84
2023/09/16 11:47:56;;;;;;;3.42;3.22;;;29.10;79.60;;;;;;4969351;28;20035;-84
2023/09/16 11:50:26;;;;;;;3.53;2.47;;;29.20;81.30;;;;;;4949288;28;20535;-85
2023/09/16 11:52:53;;;;;;;13.48;8.88;;;29.30;79.20;;;;;;4968153;28;20122;-83
2023/09/16 11:55:21;;;;;;;2.65;2.45;;;29.30;78.60;;;;;;4968087;28;20093;-84
2023/09/16 11:57:48;;;;;;;2.97;2.88;;;29.10;78.00;;;;;;4953729;28;20121;-82
2023/09/16 12:00:14;;;;;;;3.80;2.85;;;29.20;81.00;;;;;;4969364;28;20019;-81
2023/09/16 12:02:41;;;;;;;2.60;2.40;;;29.40;80.50;;;;;;4970445;28;20395;-82
2023/09/16 12:05:11;;;;;;;2.38;2.28;;;29.50;80.40;;;;;;4968347;28;20057;-82
2023/09/16 12:07:37;;;;;;;2.92;2.80;;;29.70;81.20;;;;;;4947534;28;20027;-82
2023/09/16 12:10:05;;;;;;;35.40;20.52;;;29.80;79.90;;;;;;4969910;28;20034;-84
2023/09/16 12:12:30;;;;;;;7.25;5.57;;;30.00;82.20;;;;;;4968937;28;20030;-82
2023/09/16 12:14:56;;;;;;;3.40;3.10;;;29.60;77.90;;;;;;4949201;28;20031;-83
2023/09/16 12:17:28;;;;;;;3.15;2.95;;;29.50;79.90;;;;;;4951445;28;20046;-85
2023/09/16 12:19:56;;;;;;;3.47;3.28;;;29.30;78.90;;;;;;4971392;28;20050;-85
2023/09/16 12:22:24;;;;;;;3.38;3.17;;;29.40;80.70;;;;;;4970370;28;20034;-84
2023/09/16 12:24:55;;;;;;;2.63;2.42;;;29.40;79.90;;;;;;4970364;28;20113;-84
2023/09/16 12:27:22;;;;;;;2.95;2.75;;;29.60;81.30;;;;;;4950495;28;20050;-84
2023/09/16 12:29:48;;;;;;;3.15;2.95;;;29.70;78.70;;;;;;4947437;28;20506;-83
2023/09/16 12:32:21;;;;;;;2.60;2.50;;;29.80;79.40;;;;;;4964963;28;20244;-84
2023/09/16 12:35:03;;;;;;;3.55;3.35;;;30.00;78.60;;;;;;4945551;28;20031;-81
2023/09/16 12:37:29;;;;;;;7.97;4.22;;;29.90;77.20;;;;;;4950531;28;20023;-81
2023/09/16 12:39:58;;;;;;;31.42;10.52;;;29.80;77.70;;;;;;4957102;28;20259;-81
2023/09/16 12:42:24;;;;;;;3.30;3.08;;;29.90;77.80;;;;;;4963364;28;20027;-83
2023/09/16 12:44:52;;;;;;;3.70;3.40;;;29.80;78.40;;;;;;4968867;28;20038;-83
2023/09/16 12:47:20;;;;;;;3.60;3.38;;;29.90;77.20;;;;;;4959299;28;20034;-83